sensor_id;sensor_type;location;lat;lon;timestamp;pressure;altitude;pressure_sealevel;temperature;humidity
66801;BME280;53703;50.326;19.122;2024-01-10T00:01:13;100372.69;;;16.92;30.83
66801;BME280;53703;50.326;19.122;2024-01-10T00:03:50;100365.91;;;17.04;30.72
66801;BME280;53703;50.326;19.122;2024-01-10T00:06:23;100365.52;;;16.92;30.76
66801;BME280;53703;50.326;19.122;2024-01-10T00:08:57;100366.39;;;16.98;30.62
66801;BME280;53703;50.326;19.122;2024-01-10T00:11:30;100372.13;;;17.00;30.74
66801;BME280;53703;50.326;19.122;2024-01-10T00:14:07;100369.27;;;17.00;30.65
66801;BME280;53703;50.326;19.122;2024-01-10T00:16:41;100366.21;;;17.01;30.86
66801;BME280;53703;50.326;19.122;2024-01-10T00:19:15;100367.36;;;17.10;30.50
66801;BME280;53703;50.326;19.122;2024-01-10T00:21:49;100369.76;;;17.08;30.72
66801;BME280;53703;50.326;19.122;2024-01-10T00:24:22;100374.48;;;17.12;30.68
66801;BME280;53703;50.326;19.122;2024-01-10T00:26:56;100378.01;;;17.13;30.55
66801;BME280;53703;50.326;19.122;2024-01-10T00:29:29;100382.77;;;17.08;30.48
66801;BME280;53703;50.326;19.122;2024-01-10T00:32:03;100383.48;;;17.17;30.47
66801;BME280;53703;50.326;19.122;2024-01-10T00:34:37;100383.85;;;17.17;30.37
66801;BME280;53703;50.326;19.122;2024-01-10T00:37:10;100385.33;;;17.17;30.29
66801;BME280;53703;50.326;19.122;2024-01-10T00:39:44;100385.09;;;17.15;30.35
66801;BME280;53703;50.326;19.122;2024-01-10T00:42:17;100386.52;;;17.22;30.35
66801;BME280;53703;50.326;19.122;2024-01-10T00:44:52;100383.13;;;17.17;30.46
66801;BME280;53703;50.326;19.122;2024-01-10T00:47:25;100385.00;;;17.17;30.48
66801;BME280;53703;50.326;19.122;2024-01-10T00:49:59;100388.73;;;17.28;30.39
66801;BME280;53703;50.326;19.122;2024-01-10T00:52:32;100388.47;;;17.24;30.24
66801;BME280;53703;50.326;19.122;2024-01-10T00:55:07;100390.80;;;17.26;30.29
66801;BME280;53703;50.326;19.122;2024-01-10T00:57:41;100390.05;;;17.25;30.29
66801;BME280;53703;50.326;19.122;2024-01-10T01:00:16;100390.58;;;17.23;30.06
66801;BME280;53703;50.326;19.122;2024-01-10T01:02:50;100391.16;;;17.25;30.20
66801;BME280;53703;50.326;19.122;2024-01-10T01:05:23;100386.98;;;17.32;30.28
66801;BME280;53703;50.326;19.122;2024-01-10T01:07:57;100388.90;;;17.26;30.06
66801;BME280;53703;50.326;19.122;2024-01-10T01:10:30;100385.32;;;17.31;30.24
66801;BME280;53703;50.326;19.122;2024-01-10T01:13:08;100384.52;;;17.23;30.01
66801;BME280;53703;50.326;19.122;2024-01-10T01:15:41;100392.33;;;17.24;30.22
66801;BME280;53703;50.326;19.122;2024-01-10T01:18:15;100393.63;;;17.33;30.15
66801;BME280;53703;50.326;19.122;2024-01-10T01:20:48;100394.56;;;17.33;29.94
66801;BME280;53703;50.326;19.122;2024-01-10T01:23:22;100393.21;;;17.32;30.08
66801;BME280;53703;50.326;19.122;2024-01-10T01:26:10;100388.73;;;17.35;29.96
66801;BME280;53703;50.326;19.122;2024-01-10T01:28:45;100385.48;;;17.34;29.90
66801;BME280;53703;50.326;19.122;2024-01-10T01:31:18;100382.43;;;17.42;29.93
66801;BME280;53703;50.326;19.122;2024-01-10T01:33:51;100374.48;;;17.37;29.83
66801;BME280;53703;50.326;19.122;2024-01-10T01:36:25;100373.66;;;17.35;29.86
66801;BME280;53703;50.326;19.122;2024-01-10T01:38:58;100374.25;;;17.40;29.85
66801;BME280;53703;50.326;19.122;2024-01-10T01:41:32;100368.52;;;17.39;29.75
66801;BME280;53703;50.326;19.122;2024-01-10T01:44:05;100363.27;;;17.36;29.87
66801;BME280;53703;50.326;19.122;2024-01-10T01:46:39;100361.17;;;17.40;29.66
66801;BME280;53703;50.326;19.122;2024-01-10T01:49:14;100363.63;;;17.47;29.73
66801;BME280;53703;50.326;19.122;2024-01-10T01:51:48;100357.96;;;17.43;29.41
66801;BME280;53703;50.326;19.122;2024-01-10T01:54:22;100358.10;;;17.44;29.57
66801;BME280;53703;50.326;19.122;2024-01-10T01:56:56;100357.12;;;17.41;29.67
66801;BME280;53703;50.326;19.122;2024-01-10T01:59:29;100360.42;;;17.38;29.55
66801;BME280;53703;50.326;19.122;2024-01-10T02:02:04;100363.13;;;17.38;29.42
66801;BME280;53703;50.326;19.122;2024-01-10T02:04:37;100362.55;;;17.46;29.45
66801;BME280;53703;50.326;19.122;2024-01-10T02:07:11;100363.44;;;17.39;29.42
66801;BME280;53703;50.326;19.122;2024-01-10T02:09:44;100365.17;;;17.34;29.34
66801;BME280;53703;50.326;19.122;2024-01-10T02:12:18;100362.19;;;17.32;29.46
66801;BME280;53703;50.326;19.122;2024-01-10T02:14:52;100359.36;;;17.41;29.41
66801;BME280;53703;50.326;19.122;2024-01-10T02:17:26;100360.77;;;17.43;29.35
66801;BME280;53703;50.326;19.122;2024-01-10T02:20:13;100362.50;;;17.40;29.42
66801;BME280;53703;50.326;19.122;2024-01-10T02:22:49;100363.05;;;17.33;29.36
66801;BME280;53703;50.326;19.122;2024-01-10T02:25:23;100357.52;;;17.27;29.47
66801;BME280;53703;50.326;19.122;2024-01-10T02:27:56;100352.05;;;17.31;29.29
66801;BME280;53703;50.326;19.122;2024-01-10T02:30:30;100348.84;;;17.41;29.26
66801;BME280;53703;50.326;19.122;2024-01-10T02:33:04;100341.03;;;17.45;29.28
66801;BME280;53703;50.326;19.122;2024-01-10T02:35:38;100334.10;;;17.43;29.46
66801;BME280;53703;50.326;19.122;2024-01-10T02:38:11;100331.35;;;17.40;29.34
66801;BME280;53703;50.326;19.122;2024-01-10T02:40:45;100330.08;;;17.38;29.29
66801;BME280;53703;50.326;19.122;2024-01-10T02:43:18;100334.95;;;17.43;29.12
66801;BME280;53703;50.326;19.122;2024-01-10T02:45:52;100333.56;;;17.42;29.20
66801;BME280;53703;50.326;19.122;2024-01-10T02:48:25;100329.29;;;17.33;29.23
66801;BME280;53703;50.326;19.122;2024-01-10T02:50:59;100332.16;;;17.44;29.23
66801;BME280;53703;50.326;19.122;2024-01-10T02:53:32;100332.66;;;17.35;29.23
66801;BME280;53703;50.326;19.122;2024-01-10T02:56:06;100334.63;;;17.39;29.23
66801;BME280;53703;50.326;19.122;2024-01-10T02:58:40;100330.70;;;17.45;29.01
66801;BME280;53703;50.326;19.122;2024-01-10T03:01:15;100329.87;;;17.40;29.02
66801;BME280;53703;50.326;19.122;2024-01-10T03:03:48;100327.55;;;17.40;29.25
66801;BME280;53703;50.326;19.122;2024-01-10T03:06:22;100319.41;;;17.44;29.24
66801;BME280;53703;50.326;19.122;2024-01-10T03:08:57;100318.59;;;17.41;28.97
66801;BME280;53703;50.326;19.122;2024-01-10T03:11:30;100320.01;;;17.36;29.07
66801;BME280;53703;50.326;19.122;2024-01-10T03:14:09;100319.38;;;17.34;28.97
66801;BME280;53703;50.326;19.122;2024-01-10T03:16:43;100319.20;;;17.32;28.95
66801;BME280;53703;50.326;19.122;2024-01-10T03:19:17;100317.84;;;17.31;29.05
66801;BME280;53703;50.326;19.122;2024-01-10T03:21:51;100318.15;;;17.28;29.04
66801;BME280;53703;50.326;19.122;2024-01-10T03:24:24;100320.88;;;17.30;29.05
66801;BME280;53703;50.326;19.122;2024-01-10T03:26:59;100316.35;;;17.24;29.08
66801;BME280;53703;50.326;19.122;2024-01-10T03:29:32;100311.89;;;17.26;28.89
66801;BME280;53703;50.326;19.122;2024-01-10T03:32:08;100312.44;;;17.24;28.93
66801;BME280;53703;50.326;19.122;2024-01-10T03:34:42;100317.54;;;17.23;29.02
66801;BME280;53703;50.326;19.122;2024-01-10T03:37:15;100314.55;;;17.20;29.03
66801;BME280;53703;50.326;19.122;2024-01-10T03:39:49;100311.53;;;17.25;28.88
66801;BME280;53703;50.326;19.122;2024-01-10T03:42:22;100312.27;;;17.24;28.81
66801;BME280;53703;50.326;19.122;2024-01-10T03:44:56;100314.30;;;17.15;28.79
66801;BME280;53703;50.326;19.122;2024-01-10T03:47:29;100314.98;;;17.17;28.88
66801;BME280;53703;50.326;19.122;2024-01-10T03:50:03;100318.83;;;17.25;28.88
66801;BME280;53703;50.326;19.122;2024-01-10T03:52:36;100320.14;;;17.19;28.97
66801;BME280;53703;50.326;19.122;2024-01-10T03:55:11;100319.25;;;17.16;28.93
66801;BME280;53703;50.326;19.122;2024-01-10T03:57:45;100317.58;;;17.17;28.85
66801;BME280;53703;50.326;19.122;2024-01-10T04:00:18;100315.46;;;17.18;28.85
66801;BME280;53703;50.326;19.122;2024-01-10T04:02:52;100315.13;;;17.25;28.90
66801;BME280;53703;50.326;19.122;2024-01-10T04:05:26;100307.84;;;17.21;28.84
66801;BME280;53703;50.326;19.122;2024-01-10T04:07:59;100298.92;;;17.15;28.89
66801;BME280;53703;50.326;19.122;2024-01-10T04:10:32;100296.69;;;17.13;28.95
66801;BME280;53703;50.326;19.122;2024-01-10T04:13:06;100302.19;;;17.14;28.82
66801;BME280;53703;50.326;19.122;2024-01-10T04:15:40;100304.59;;;17.18;28.80
66801;BME280;53703;50.326;19.122;2024-01-10T04:18:13;100302.80;;;17.11;28.89
66801;BME280;53703;50.326;19.122;2024-01-10T04:20:49;100301.05;;;17.09;28.76
66801;BME280;53703;50.326;19.122;2024-01-10T04:23:22;100303.95;;;17.04;28.81
66801;BME280;53703;50.326;19.122;2024-01-10T04:25:56;100306.61;;;17.13;28.97
66801;BME280;53703;50.326;19.122;2024-01-10T04:28:29;100298.65;;;17.08;28.79
66801;BME280;53703;50.326;19.122;2024-01-10T04:31:02;100304.95;;;16.99;28.90
66801;BME280;53703;50.326;19.122;2024-01-10T04:33:36;100310.08;;;17.06;28.76
66801;BME280;53703;50.326;19.122;2024-01-10T04:36:10;100310.10;;;17.06;28.61
66801;BME280;53703;50.326;19.122;2024-01-10T04:38:44;100307.95;;;16.97;28.68
66801;BME280;53703;50.326;19.122;2024-01-10T04:41:17;100305.64;;;17.05;28.83
66801;BME280;53703;50.326;19.122;2024-01-10T04:43:51;100296.80;;;17.06;28.94
66801;BME280;53703;50.326;19.122;2024-01-10T04:46:25;100300.39;;;17.13;28.85
66801;BME280;53703;50.326;19.122;2024-01-10T04:48:59;100304.14;;;16.87;28.50
66801;BME280;53703;50.326;19.122;2024-01-10T04:51:32;100301.17;;;16.94;28.91
66801;BME280;53703;50.326;19.122;2024-01-10T04:54:06;100298.86;;;16.94;29.08
66801;BME280;53703;50.326;19.122;2024-01-10T04:56:39;100297.91;;;16.94;29.32
66801;BME280;53703;50.326;19.122;2024-01-10T04:59:13;100295.67;;;16.93;29.31
66801;BME280;53703;50.326;19.122;2024-01-10T05:01:46;100299.09;;;16.99;29.38
66801;BME280;53703;50.326;19.122;2024-01-10T05:04:20;100299.56;;;16.87;29.95
66801;BME280;53703;50.326;19.122;2024-01-10T05:06:53;100301.02;;;16.80;29.87
66801;BME280;53703;50.326;19.122;2024-01-10T05:09:27;100302.34;;;16.85;29.57
66801;BME280;53703;50.326;19.122;2024-01-10T05:12:00;100299.15;;;16.83;29.46
66801;BME280;53703;50.326;19.122;2024-01-10T05:14:34;100298.98;;;16.89;29.34
66801;BME280;53703;50.326;19.122;2024-01-10T05:17:08;100303.32;;;16.80;29.39
66801;BME280;53703;50.326;19.122;2024-01-10T05:19:42;100301.82;;;16.82;29.37
66801;BME280;53703;50.326;19.122;2024-01-10T05:22:15;100301.07;;;16.87;29.24
66801;BME280;53703;50.326;19.122;2024-01-10T05:24:49;100304.88;;;16.93;29.43
66801;BME280;53703;50.326;19.122;2024-01-10T05:27:22;100298.79;;;16.98;29.12
66801;BME280;53703;50.326;19.122;2024-01-10T05:29:55;100299.19;;;16.94;29.02
66801;BME280;53703;50.326;19.122;2024-01-10T05:32:29;100296.88;;;16.83;29.12
66801;BME280;53703;50.326;19.122;2024-01-10T05:35:04;100292.77;;;16.85;29.15
66801;BME280;53703;50.326;19.122;2024-01-10T05:37:38;100294.31;;;16.89;28.96
66801;BME280;53703;50.326;19.122;2024-01-10T05:40:12;100301.25;;;16.83;29.06
66801;BME280;53703;50.326;19.122;2024-01-10T05:42:46;100299.75;;;16.80;29.05
66801;BME280;53703;50.326;19.122;2024-01-10T05:45:19;100298.16;;;16.75;29.01
66801;BME280;53703;50.326;19.122;2024-01-10T05:47:56;100298.33;;;16.75;28.99
66801;BME280;53703;50.326;19.122;2024-01-10T05:50:29;100293.06;;;16.70;29.00
66801;BME280;53703;50.326;19.122;2024-01-10T05:53:03;100301.42;;;16.75;29.03
66801;BME280;53703;50.326;19.122;2024-01-10T05:55:37;100307.04;;;16.80;28.92
66801;BME280;53703;50.326;19.122;2024-01-10T05:58:10;100308.96;;;16.76;28.79
66801;BME280;53703;50.326;19.122;2024-01-10T06:00:44;100313.02;;;16.70;28.99
66801;BME280;53703;50.326;19.122;2024-01-10T06:03:17;100313.10;;;16.66;28.93
66801;BME280;53703;50.326;19.122;2024-01-10T06:05:51;100318.33;;;16.62;28.97
66801;BME280;53703;50.326;19.122;2024-01-10T06:08:24;100317.47;;;16.57;28.89
66801;BME280;53703;50.326;19.122;2024-01-10T06:11:01;100319.83;;;16.62;28.95
66801;BME280;53703;50.326;19.122;2024-01-10T06:13:35;100316.60;;;16.61;28.85
66801;BME280;53703;50.326;19.122;2024-01-10T06:16:25;100320.88;;;16.58;28.84
66801;BME280;53703;50.326;19.122;2024-01-10T06:18:58;100325.05;;;16.55;28.88
66801;BME280;53703;50.326;19.122;2024-01-10T06:21:32;100325.22;;;16.63;28.97
66801;BME280;53703;50.326;19.122;2024-01-10T06:24:06;100323.71;;;16.57;28.88
66801;BME280;53703;50.326;19.122;2024-01-10T06:26:40;100328.74;;;16.59;28.91
66801;BME280;53703;50.326;19.122;2024-01-10T06:29:13;100325.02;;;16.53;28.84
66801;BME280;53703;50.326;19.122;2024-01-10T06:31:47;100326.61;;;16.43;28.85
66801;BME280;53703;50.326;19.122;2024-01-10T06:34:20;100326.65;;;16.44;28.94
66801;BME280;53703;50.326;19.122;2024-01-10T06:36:54;100322.16;;;16.49;28.90
66801;BME280;53703;50.326;19.122;2024-01-10T06:39:28;100321.29;;;16.49;28.89
66801;BME280;53703;50.326;19.122;2024-01-10T06:42:01;100319.20;;;16.44;28.97
66801;BME280;53703;50.326;19.122;2024-01-10T06:44:36;100315.11;;;16.44;28.82
66801;BME280;53703;50.326;19.122;2024-01-10T06:47:09;100314.14;;;16.48;28.86
66801;BME280;53703;50.326;19.122;2024-01-10T06:49:43;100316.52;;;16.39;28.83
66801;BME280;53703;50.326;19.122;2024-01-10T06:52:16;100320.91;;;16.33;28.89
66801;BME280;53703;50.326;19.122;2024-01-10T06:54:50;100323.34;;;16.32;28.81
66801;BME280;53703;50.326;19.122;2024-01-10T06:57:23;100316.33;;;16.30;29.00
66801;BME280;53703;50.326;19.122;2024-01-10T06:59:57;100313.14;;;16.33;29.07
66801;BME280;53703;50.326;19.122;2024-01-10T07:02:30;100311.91;;;16.34;28.92
66801;BME280;53703;50.326;19.122;2024-01-10T07:05:08;100312.77;;;16.31;28.95
66801;BME280;53703;50.326;19.122;2024-01-10T07:07:42;100308.36;;;16.32;28.91
66801;BME280;53703;50.326;19.122;2024-01-10T07:10:16;100308.77;;;16.27;29.00
66801;BME280;53703;50.326;19.122;2024-01-10T07:12:49;100307.85;;;16.29;28.89
66801;BME280;53703;50.326;19.122;2024-01-10T07:15:22;100307.42;;;16.23;28.98
66801;BME280;53703;50.326;19.122;2024-01-10T07:17:56;100300.23;;;16.27;28.97
66801;BME280;53703;50.326;19.122;2024-01-10T07:20:30;100295.47;;;16.28;28.81
66801;BME280;53703;50.326;19.122;2024-01-10T07:23:05;100291.58;;;16.30;29.10
66801;BME280;53703;50.326;19.122;2024-01-10T07:25:38;100290.14;;;16.23;28.94
66801;BME280;53703;50.326;19.122;2024-01-10T07:28:12;100293.31;;;16.32;29.07
66801;BME280;53703;50.326;19.122;2024-01-10T07:30:45;100294.76;;;16.16;29.07
66801;BME280;53703;50.326;19.122;2024-01-10T07:33:19;100289.95;;;16.25;28.86
66801;BME280;53703;50.326;19.122;2024-01-10T07:35:52;100293.29;;;16.25;28.85
66801;BME280;53703;50.326;19.122;2024-01-10T07:38:27;100298.84;;;16.31;28.91
66801;BME280;53703;50.326;19.122;2024-01-10T07:41:01;100296.10;;;16.29;28.65
66801;BME280;53703;50.326;19.122;2024-01-10T07:43:35;100300.79;;;16.26;28.75
66801;BME280;53703;50.326;19.122;2024-01-10T07:46:08;100302.95;;;16.29;28.87
66801;BME280;53703;50.326;19.122;2024-01-10T07:48:42;100297.79;;;16.27;28.75
66801;BME280;53703;50.326;19.122;2024-01-10T07:51:16;100295.98;;;16.26;28.78
66801;BME280;53703;50.326;19.122;2024-01-10T07:53:49;100300.71;;;16.11;28.95
66801;BME280;53703;50.326;19.122;2024-01-10T07:56:23;100301.04;;;16.12;29.05
66801;BME280;53703;50.326;19.122;2024-01-10T07:58:57;100299.98;;;16.16;28.85
66801;BME280;53703;50.326;19.122;2024-01-10T08:01:30;100301.31;;;16.20;28.76
66801;BME280;53703;50.326;19.122;2024-01-10T08:04:04;100303.27;;;16.09;28.97
66801;BME280;53703;50.326;19.122;2024-01-10T08:06:37;100298.17;;;16.07;28.97
66801;BME280;53703;50.326;19.122;2024-01-10T08:09:11;100297.80;;;16.06;28.99
66801;BME280;53703;50.326;19.122;2024-01-10T08:11:46;100299.88;;;16.16;28.96
66801;BME280;53703;50.326;19.122;2024-01-10T08:14:20;100297.47;;;16.02;29.19
66801;BME280;53703;50.326;19.122;2024-01-10T08:16:54;100298.35;;;16.10;29.17
66801;BME280;53703;50.326;19.122;2024-01-10T08:19:30;100297.52;;;16.07;29.16
66801;BME280;53703;50.326;19.122;2024-01-10T08:22:04;100296.92;;;16.06;29.29
66801;BME280;53703;50.326;19.122;2024-01-10T08:24:38;100294.56;;;16.09;29.12
66801;BME280;53703;50.326;19.122;2024-01-10T08:27:11;100295.73;;;16.05;29.11
66801;BME280;53703;50.326;19.122;2024-01-10T08:29:45;100294.19;;;16.05;29.15
66801;BME280;53703;50.326;19.122;2024-01-10T08:32:18;100293.59;;;16.05;29.05
66801;BME280;53703;50.326;19.122;2024-01-10T08:34:54;100293.61;;;15.98;29.22
66801;BME280;53703;50.326;19.122;2024-01-10T08:37:27;100302.02;;;15.99;29.12
66801;BME280;53703;50.326;19.122;2024-01-10T08:40:01;100304.53;;;15.97;29.20
66801;BME280;53703;50.326;19.122;2024-01-10T08:42:38;100304.21;;;16.01;29.22
66801;BME280;53703;50.326;19.122;2024-01-10T08:45:12;100302.05;;;15.98;29.16
66801;BME280;53703;50.326;19.122;2024-01-10T08:47:47;100301.34;;;15.91;29.29
66801;BME280;53703;50.326;19.122;2024-01-10T08:50:20;100300.41;;;15.90;29.23
66801;BME280;53703;50.326;19.122;2024-01-10T08:52:54;100297.46;;;15.94;29.32
66801;BME280;53703;50.326;19.122;2024-01-10T08:55:28;100301.06;;;16.01;29.17
66801;BME280;53703;50.326;19.122;2024-01-10T08:58:02;100298.39;;;16.02;29.52
66801;BME280;53703;50.326;19.122;2024-01-10T09:00:36;100297.10;;;15.86;29.18
66801;BME280;53703;50.326;19.122;2024-01-10T09:03:09;100297.54;;;15.68;29.68
66801;BME280;53703;50.326;19.122;2024-01-10T09:05:43;100300.16;;;14.39;28.04
66801;BME280;53703;50.326;19.122;2024-01-10T09:08:36;100301.63;;;15.24;29.93
66801;BME280;53703;50.326;19.122;2024-01-10T09:11:10;100300.82;;;15.64;29.87
66801;BME280;53703;50.326;19.122;2024-01-10T09:13:43;100298.30;;;15.69;29.96
66801;BME280;53703;50.326;19.122;2024-01-10T09:16:17;100298.46;;;15.68;29.99
66801;BME280;53703;50.326;19.122;2024-01-10T09:18:51;100293.95;;;15.62;30.01
66801;BME280;53703;50.326;19.122;2024-01-10T09:21:28;100292.88;;;15.81;31.04
66801;BME280;53703;50.326;19.122;2024-01-10T09:24:02;100289.05;;;15.85;30.74
66801;BME280;53703;50.326;19.122;2024-01-10T09:26:53;100282.49;;;15.87;30.39
66801;BME280;53703;50.326;19.122;2024-01-10T09:29:27;100283.22;;;15.86;30.07
66801;BME280;53703;50.326;19.122;2024-01-10T09:32:01;100286.60;;;15.89;30.06
66801;BME280;53703;50.326;19.122;2024-01-10T09:34:34;100285.35;;;15.88;29.74
66801;BME280;53703;50.326;19.122;2024-01-10T09:37:08;100281.11;;;15.88;29.83
66801;BME280;53703;50.326;19.122;2024-01-10T09:39:41;100277.98;;;15.87;30.10
66801;BME280;53703;50.326;19.122;2024-01-10T09:42:15;100274.66;;;16.03;29.40
66801;BME280;53703;50.326;19.122;2024-01-10T09:44:49;100273.02;;;15.94;29.72
66801;BME280;53703;50.326;19.122;2024-01-10T09:47:23;100269.05;;;15.89;30.47
66801;BME280;53703;50.326;19.122;2024-01-10T09:49:57;100267.66;;;15.98;30.73
66801;BME280;53703;50.326;19.122;2024-01-10T09:52:38;100267.71;;;16.00;29.61
66801;BME280;53703;50.326;19.122;2024-01-10T09:55:18;100264.14;;;15.88;30.72
66801;BME280;53703;50.326;19.122;2024-01-10T09:57:56;100261.33;;;15.99;31.25
66801;BME280;53703;50.326;19.122;2024-01-10T10:00:30;100253.87;;;16.16;31.04
66801;BME280;53703;50.326;19.122;2024-01-10T10:03:10;100245.79;;;16.26;30.70
66801;BME280;53703;50.326;19.122;2024-01-10T10:05:45;100246.30;;;16.17;30.72
66801;BME280;53703;50.326;19.122;2024-01-10T10:08:19;100248.58;;;16.13;30.66
66801;BME280;53703;50.326;19.122;2024-01-10T10:10:55;100251.69;;;16.10;30.63
66801;BME280;53703;50.326;19.122;2024-01-10T10:13:29;100244.20;;;16.11;30.57
66801;BME280;53703;50.326;19.122;2024-01-10T10:16:04;100243.55;;;16.02;30.66
66801;BME280;53703;50.326;19.122;2024-01-10T10:18:39;100233.92;;;16.01;30.62
66801;BME280;53703;50.326;19.122;2024-01-10T10:21:14;100236.66;;;15.99;30.58
66801;BME280;53703;50.326;19.122;2024-01-10T10:24:00;100236.11;;;16.10;30.43
66801;BME280;53703;50.326;19.122;2024-01-10T10:26:36;100239.52;;;15.99;30.55
66801;BME280;53703;50.326;19.122;2024-01-10T10:29:10;100243.13;;;15.96;30.06
66801;BME280;53703;50.326;19.122;2024-01-10T10:31:43;100244.13;;;16.00;30.65
66801;BME280;53703;50.326;19.122;2024-01-10T10:34:23;100248.15;;;15.95;30.58
66801;BME280;53703;50.326;19.122;2024-01-10T10:36:57;100246.52;;;15.98;30.54
66801;BME280;53703;50.326;19.122;2024-01-10T10:39:31;100247.83;;;15.99;30.45
66801;BME280;53703;50.326;19.122;2024-01-10T10:42:05;100243.42;;;16.03;30.27
66801;BME280;53703;50.326;19.122;2024-01-10T10:44:41;100242.20;;;15.97;30.50
66801;BME280;53703;50.326;19.122;2024-01-10T10:47:16;100237.38;;;15.99;30.48
66801;BME280;53703;50.326;19.122;2024-01-10T10:49:54;100231.95;;;15.99;29.99
66801;BME280;53703;50.326;19.122;2024-01-10T10:52:29;100237.39;;;15.43;29.88
66801;BME280;53703;50.326;19.122;2024-01-10T10:55:04;100234.23;;;15.93;30.45
66801;BME280;53703;50.326;19.122;2024-01-10T10:57:37;100229.91;;;16.12;30.22
66801;BME280;53703;50.326;19.122;2024-01-10T11:00:14;100220.83;;;16.09;30.14
66801;BME280;53703;50.326;19.122;2024-01-10T11:02:48;100220.59;;;16.01;30.18
66801;BME280;53703;50.326;19.122;2024-01-10T11:05:23;100220.20;;;16.10;30.17
66801;BME280;53703;50.326;19.122;2024-01-10T11:07:58;100216.63;;;16.08;30.13
66801;BME280;53703;50.326;19.122;2024-01-10T11:10:39;100215.69;;;16.13;30.15
66801;BME280;53703;50.326;19.122;2024-01-10T11:13:27;100216.42;;;16.11;30.19
66801;BME280;53703;50.326;19.122;2024-01-10T11:16:48;100214.09;;;16.12;30.16
66801;BME280;53703;50.326;19.122;2024-01-10T11:19:51;100208.14;;;16.10;30.28
66801;BME280;53703;50.326;19.122;2024-01-10T11:22:43;100210.83;;;16.06;30.27
66801;BME280;53703;50.326;19.122;2024-01-10T11:25:22;100209.80;;;16.20;30.20
66801;BME280;53703;50.326;19.122;2024-01-10T11:27:56;100210.95;;;16.25;30.20
66801;BME280;53703;50.326;19.122;2024-01-10T11:30:50;100209.46;;;16.28;30.09
66801;BME280;53703;50.326;19.122;2024-01-10T11:33:31;100210.48;;;16.24;30.41
66801;BME280;53703;50.326;19.122;2024-01-10T11:36:14;100211.83;;;16.39;30.11
66801;BME280;53703;50.326;19.122;2024-01-10T11:39:00;100212.73;;;16.04;28.68
66801;BME280;53703;50.326;19.122;2024-01-10T11:41:36;100212.67;;;16.30;31.21
66801;BME280;53703;50.326;19.122;2024-01-10T11:44:31;100209.35;;;16.45;31.73
66801;BME280;53703;50.326;19.122;2024-01-10T11:47:06;100201.55;;;16.50;33.10
66801;BME280;53703;50.326;19.122;2024-01-10T11:49:40;100198.73;;;16.48;32.64
66801;BME280;53703;50.326;19.122;2024-01-10T11:52:15;100200.35;;;16.46;32.09
66801;BME280;53703;50.326;19.122;2024-01-10T11:54:49;100195.64;;;16.45;31.75
66801;BME280;53703;50.326;19.122;2024-01-10T11:57:27;100194.48;;;16.55;31.50
66801;BME280;53703;50.326;19.122;2024-01-10T12:00:03;100190.51;;;16.52;31.25
66801;BME280;53703;50.326;19.122;2024-01-10T12:02:40;100185.91;;;16.54;31.34
66801;BME280;53703;50.326;19.122;2024-01-10T12:05:15;100188.55;;;16.57;31.05
66801;BME280;53703;50.326;19.122;2024-01-10T12:07:52;100191.24;;;16.51;31.18
66801;BME280;53703;50.326;19.122;2024-01-10T12:10:26;100192.96;;;16.53;30.96
66801;BME280;53703;50.326;19.122;2024-01-10T12:13:00;100195.20;;;16.58;31.01
66801;BME280;53703;50.326;19.122;2024-01-10T12:15:33;100197.67;;;16.56;31.17
66801;BME280;53703;50.326;19.122;2024-01-10T12:18:08;100194.30;;;16.56;31.00
66801;BME280;53703;50.326;19.122;2024-01-10T12:20:44;100192.59;;;16.66;30.93
66801;BME280;53703;50.326;19.122;2024-01-10T12:23:17;100191.57;;;16.63;30.84
66801;BME280;53703;50.326;19.122;2024-01-10T12:25:52;100187.85;;;16.63;30.49
66801;BME280;53703;50.326;19.122;2024-01-10T12:28:26;100180.81;;;16.70;30.74
66801;BME280;53703;50.326;19.122;2024-01-10T12:30:59;100177.75;;;16.63;30.69
66801;BME280;53703;50.326;19.122;2024-01-10T12:33:35;100175.70;;;16.79;30.83
66801;BME280;53703;50.326;19.122;2024-01-10T12:36:10;100168.98;;;16.69;30.87
66801;BME280;53703;50.326;19.122;2024-01-10T12:38:44;100159.58;;;16.68;30.93
66801;BME280;53703;50.326;19.122;2024-01-10T12:41:19;100150.98;;;16.71;30.75
66801;BME280;53703;50.326;19.122;2024-01-10T12:43:55;100150.55;;;16.76;30.83
66801;BME280;53703;50.326;19.122;2024-01-10T12:46:28;100147.12;;;16.65;30.79
66801;BME280;53703;50.326;19.122;2024-01-10T12:49:03;100144.72;;;16.78;30.72
66801;BME280;53703;50.326;19.122;2024-01-10T12:51:38;100146.02;;;16.79;30.58
66801;BME280;53703;50.326;19.122;2024-01-10T12:54:12;100143.77;;;16.85;30.69
66801;BME280;53703;50.326;19.122;2024-01-10T12:56:45;100140.33;;;16.83;30.85
66801;BME280;53703;50.326;19.122;2024-01-10T12:59:19;100138.49;;;16.81;30.80
66801;BME280;53703;50.326;19.122;2024-01-10T13:01:52;100134.88;;;16.85;30.68
66801;BME280;53703;50.326;19.122;2024-01-10T13:04:26;100130.11;;;16.96;30.53
66801;BME280;53703;50.326;19.122;2024-01-10T13:07:00;100128.36;;;16.86;30.60
66801;BME280;53703;50.326;19.122;2024-01-10T13:09:34;100133.49;;;16.83;30.66
66801;BME280;53703;50.326;19.122;2024-01-10T13:12:11;100135.61;;;16.82;30.69
66801;BME280;53703;50.326;19.122;2024-01-10T13:14:44;100132.08;;;16.85;30.75
66801;BME280;53703;50.326;19.122;2024-01-10T13:17:17;100129.66;;;16.96;30.52
66801;BME280;53703;50.326;19.122;2024-01-10T13:19:52;100121.12;;;16.90;30.60